Time;durP1;ratioP1;P1;durP2;ratioP2;P2;SDS_P1;SDS_P2;PMS_P1;PMS_P2;Temp;Humidity;BMP_temperature;BMP_pressure;BME280_temperature;BME280_humidity;BME280_pressure;Samples;Min_cycle;Max_cycle;Signal;HPM_P1;HPM_P2
2021/12/03 00:00:19;;;;;;;5.22;2.95;;;;;;;;;;5052916;28;20506;-65
2021/12/03 00:02:45;;;;;;;6.47;3.85;;;;;;;;;;5052402;28;20080;-65
2021/12/03 00:05:11;;;;;;;5.88;3.05;;;;;;;;;;5052141;28;20391;-65
2021/12/03 00:07:40;;;;;;;9.00;4.30;;;;;;;;;;5052683;28;20049;-65
2021/12/03 00:10:07;;;;;;;9.80;4.05;;;;;;;;;;5052700;28;20494;-65
2021/12/03 00:12:34;;;;;;;8.90;3.92;;;;;;;;;;5051813;28;20052;-65
2021/12/03 00:15:00;;;;;;;8.68;4.03;;;;;;;;;;5052615;28;20037;-65
2021/12/03 00:17:26;;;;;;;13.30;4.80;;;;;;;;;;5052432;28;20371;-65
2021/12/03 00:19:52;;;;;;;10.15;4.75;;;;;;;;;;5051570;28;20041;-65
2021/12/03 00:22:18;;;;;;;19.05;5.85;;;;;;;;;;5051893;28;20064;-65
2021/12/03 00:24:44;;;;;;;12.77;5.72;;;;;;;;;;5034237;28;20080;-65
2021/12/03 00:27:11;;;;;;;10.25;5.13;;;;;;;;;;5051438;28;20374;-65
2021/12/03 00:29:37;;;;;;;14.48;6.57;;;;;;;;;;5052047;28;20356;-65
2021/12/03 00:32:03;;;;;;;13.50;6.28;;;;;;;;;;5052081;28;20458;-65
2021/12/03 00:34:29;;;;;;;11.77;6.82;;;;;;;;;;5033734;28;20033;-65
2021/12/03 00:36:55;;;;;;;19.00;7.15;;;;;;;;;;5052161;28;20037;-65
2021/12/03 00:39:22;;;;;;;13.98;6.22;;;;;;;;;;5052092;28;20088;-65
2021/12/03 00:41:54;;;;;;;20.02;9.75;;;;;;;;;;5033422;28;20071;-65
2021/12/03 00:44:23;;;;;;;18.35;9.55;;;;;;;;;;5052138;28;20044;-65
2021/12/03 00:46:49;;;;;;;12.25;5.70;;;;;;;;;;5033884;28;20049;-65
2021/12/03 00:49:16;;;;;;;8.70;5.30;;;;;;;;;;5033498;28;20080;-65
2021/12/03 00:51:42;;;;;;;9.85;4.75;;;;;;;;;;5051681;28;20091;-65
2021/12/03 00:54:09;;;;;;;8.43;4.38;;;;;;;;;;5033909;28;20090;-65
2021/12/03 00:56:35;;;;;;;8.27;4.68;;;;;;;;;;5033264;28;20044;-65
2021/12/03 00:59:01;;;;;;;6.88;3.72;;;;;;;;;;5051962;28;20063;-65
2021/12/03 01:01:27;;;;;;;8.68;4.20;;;;;;;;;;5051673;28;20575;-65
2021/12/03 01:03:53;;;;;;;10.52;4.72;;;;;;;;;;5050805;28;20407;-65
2021/12/03 01:06:19;;;;;;;8.90;4.55;;;;;;;;;;5051717;28;20044;-65
2021/12/03 01:08:45;;;;;;;9.82;4.70;;;;;;;;;;5051445;28;20430;-65
2021/12/03 01:11:12;;;;;;;10.30;5.30;;;;;;;;;;5050910;28;20036;-65
2021/12/03 01:13:39;;;;;;;15.57;5.90;;;;;;;;;;5051763;28;20037;-65
2021/12/03 01:16:06;;;;;;;12.43;5.82;;;;;;;;;;5033832;28;20049;-65
2021/12/03 01:18:32;;;;;;;12.70;6.20;;;;;;;;;;5032808;28;20120;-65
2021/12/03 01:20:58;;;;;;;14.30;7.00;;;;;;;;;;5051427;28;20033;-65
2021/12/03 01:23:24;;;;;;;14.68;6.38;;;;;;;;;;5051114;28;20069;-65
2021/12/03 01:25:50;;;;;;;12.25;6.63;;;;;;;;;;5050992;28;20430;-65
2021/12/03 01:28:16;;;;;;;11.82;7.00;;;;;;;;;;5051315;28;20045;-65
2021/12/03 01:30:42;;;;;;;18.77;7.88;;;;;;;;;;5051389;28;20041;-65
2021/12/03 01:33:09;;;;;;;11.73;6.88;;;;;;;;;;5033009;28;20114;-65
2021/12/03 01:35:36;;;;;;;15.23;8.02;;;;;;;;;;5050820;28;20090;-65
2021/12/03 01:38:03;;;;;;;13.55;7.95;;;;;;;;;;5033341;28;20049;-65
2021/12/03 01:40:29;;;;;;;15.93;7.80;;;;;;;;;;5033588;28;20041;-65
2021/12/03 01:42:56;;;;;;;20.10;8.32;;;;;;;;;;5050609;28;20047;-65
2021/12/03 01:45:25;;;;;;;13.55;8.30;;;;;;;;;;5033269;28;20048;-65
2021/12/03 01:47:52;;;;;;;12.85;8.48;;;;;;;;;;5051251;28;20345;-65
2021/12/03 01:50:18;;;;;;;15.05;9.15;;;;;;;;;;5032525;28;20124;-65
2021/12/03 01:52:44;;;;;;;12.93;9.00;;;;;;;;;;5033018;28;20048;-65
2021/12/03 01:55:11;;;;;;;14.27;9.60;;;;;;;;;;5051210;28;20044;-65
2021/12/03 01:57:38;;;;;;;19.42;10.00;;;;;;;;;;5032577;28;20053;-65
2021/12/03 02:00:10;;;;;;;17.33;10.38;;;;;;;;;;5033400;28;20045;-65
2021/12/03 02:02:36;;;;;;;16.10;10.98;;;;;;;;;;5033112;28;20045;-65
2021/12/03 02:05:03;;;;;;;19.88;11.95;;;;;;;;;;5049727;28;20044;-65
2021/12/03 02:07:29;;;;;;;20.00;12.63;;;;;;;;;;5051104;28;20456;-65
2021/12/03 02:09:55;;;;;;;16.73;12.23;;;;;;;;;;5051234;28;20068;-65
2021/12/03 02:12:21;;;;;;;19.95;12.25;;;;;;;;;;5050498;28;20041;-65
2021/12/03 02:14:47;;;;;;;17.20;12.38;;;;;;;;;;5033267;28;20098;-65
2021/12/03 02:17:13;;;;;;;19.65;13.00;;;;;;;;;;5053749;28;20438;-65
2021/12/03 02:19:40;;;;;;;21.25;12.27;;;;;;;;;;5036007;28;20045;-65
2021/12/03 02:22:06;;;;;;;17.17;12.20;;;;;;;;;;5054436;28;20061;-65
2021/12/03 02:24:32;;;;;;;21.25;12.85;;;;;;;;;;5054538;28;20049;-65
2021/12/03 02:26:58;;;;;;;16.63;12.55;;;;;;;;;;5036015;28;20052;-65
2021/12/03 02:29:24;;;;;;;20.90;12.32;;;;;;;;;;5036700;28;20691;-65
2021/12/03 02:31:51;;;;;;;21.30;12.57;;;;;;;;;;5036317;28;20049;-65
2021/12/03 02:34:17;;;;;;;18.58;12.55;;;;;;;;;;5053841;28;20084;-65
2021/12/03 02:36:43;;;;;;;16.17;11.23;;;;;;;;;;5054188;28;20037;-65
2021/12/03 02:39:09;;;;;;;19.63;12.88;;;;;;;;;;5036577;28;20464;-65
2021/12/03 02:41:35;;;;;;;19.48;12.32;;;;;;;;;;5053271;28;20041;-65
2021/12/03 02:44:02;;;;;;;21.30;12.80;;;;;;;;;;5054090;28;20037;-65
2021/12/03 02:46:28;;;;;;;20.67;12.63;;;;;;;;;;5054010;28;20037;-65
2021/12/03 02:48:54;;;;;;;21.35;12.13;;;;;;;;;;5053250;28;20041;-65
2021/12/03 02:51:20;;;;;;;20.30;13.15;;;;;;;;;;5036106;28;20037;-65
2021/12/03 02:53:46;;;;;;;19.90;11.82;;;;;;;;;;5054127;28;20037;-65
2021/12/03 02:56:13;;;;;;;23.88;12.18;;;;;;;;;;5053257;28;20066;-65
2021/12/03 02:58:39;;;;;;;17.67;11.77;;;;;;;;;;5054012;28;20392;-65
2021/12/03 03:01:07;;;;;;;15.75;11.13;;;;;;;;;;5035659;28;20037;-65
2021/12/03 03:03:33;;;;;;;20.00;12.20;;;;;;;;;;5035493;28;20087;-65
2021/12/03 03:06:00;;;;;;;16.63;10.60;;;;;;;;;;5035785;28;20056;-65
2021/12/03 03:08:27;;;;;;;18.27;11.45;;;;;;;;;;5053784;28;20044;-65
2021/12/03 03:10:54;;;;;;;16.95;11.52;;;;;;;;;;5035446;28;20049;-65
2021/12/03 03:13:20;;;;;;;17.20;11.45;;;;;;;;;;5053780;28;20467;-65
2021/12/03 03:15:47;;;;;;;19.77;11.80;;;;;;;;;;5053561;28;20056;-65
2021/12/03 03:18:15;;;;;;;16.85;11.45;;;;;;;;;;5053134;28;20072;-65
2021/12/03 03:20:42;;;;;;;16.65;11.55;;;;;;;;;;5053501;28;20047;-65
2021/12/03 03:23:08;;;;;;;15.80;11.55;;;;;;;;;;5053118;28;20088;-65
2021/12/03 03:25:35;;;;;;;15.13;11.50;;;;;;;;;;5053041;28;20029;-65
2021/12/03 03:28:01;;;;;;;18.00;12.27;;;;;;;;;;5035248;28;20081;-65
2021/12/03 03:30:27;;;;;;;16.85;12.05;;;;;;;;;;5053567;28;20056;-65
2021/12/03 03:32:53;;;;;;;15.50;11.82;;;;;;;;;;5052760;28;20699;-65
2021/12/03 03:35:19;;;;;;;16.52;11.88;;;;;;;;;;5053554;28;20430;-65
2021/12/03 03:37:46;;;;;;;18.90;12.75;;;;;;;;;;5035176;28;20044;-65
2021/12/03 03:40:12;;;;;;;19.73;12.88;;;;;;;;;;5034591;28;20044;-65
2021/12/03 03:42:38;;;;;;;17.05;11.07;;;;;;;;;;5052958;28;20049;-65
2021/12/03 03:45:07;;;;;;;17.27;11.60;;;;;;;;;;5052990;28;20052;-65
2021/12/03 03:47:33;;;;;;;16.58;12.75;;;;;;;;;;5034295;28;20057;-65
2021/12/03 03:50:00;;;;;;;22.85;13.05;;;;;;;;;;5053177;28;20510;-65
2021/12/03 03:52:28;;;;;;;18.65;12.32;;;;;;;;;;5034798;28;20049;-65
2021/12/03 03:54:54;;;;;;;20.27;12.40;;;;;;;;;;5034444;28;20071;-65
2021/12/03 03:57:20;;;;;;;18.52;13.05;;;;;;;;;;5052953;28;20052;-65
2021/12/03 03:59:46;;;;;;;18.30;12.32;;;;;;;;;;5034700;28;20106;-65
2021/12/03 04:02:12;;;;;;;18.50;12.80;;;;;;;;;;5052065;28;20041;-65
2021/12/03 04:04:38;;;;;;;19.00;13.40;;;;;;;;;;5052810;28;20040;-65
2021/12/03 04:07:05;;;;;;;16.95;12.23;;;;;;;;;;5052686;28;20040;-65
2021/12/03 04:09:31;;;;;;;16.42;11.43;;;;;;;;;;5051925;28;20049;-65
2021/12/03 04:11:57;;;;;;;20.80;12.50;;;;;;;;;;5034491;28;20048;-65
2021/12/03 04:14:23;;;;;;;19.38;11.80;;;;;;;;;;5052676;28;20463;-65
2021/12/03 04:16:49;;;;;;;19.70;12.48;;;;;;;;;;5033814;28;20442;-65
2021/12/03 04:19:17;;;;;;;18.90;12.05;;;;;;;;;;5034255;28;20052;-65
2021/12/03 04:21:43;;;;;;;17.63;12.68;;;;;;;;;;5052127;28;20055;-65
2021/12/03 04:24:10;;;;;;;16.25;12.55;;;;;;;;;;5033819;28;20048;-65
2021/12/03 04:26:36;;;;;;;15.55;11.43;;;;;;;;;;5052417;28;20044;-65
2021/12/03 04:29:02;;;;;;;20.90;11.68;;;;;;;;;;5052020;28;20049;-65
2021/12/03 04:31:29;;;;;;;17.75;12.07;;;;;;;;;;5033644;28;20073;-65
2021/12/03 04:33:55;;;;;;;13.73;10.15;;;;;;;;;;5034183;28;20056;-65
2021/12/03 04:36:21;;;;;;;15.98;10.93;;;;;;;;;;5052336;28;20036;-65
2021/12/03 04:38:47;;;;;;;15.75;11.13;;;;;;;;;;5050939;28;20568;-65
2021/12/03 04:41:13;;;;;;;16.52;11.27;;;;;;;;;;5033716;28;20604;-65
2021/12/03 04:43:39;;;;;;;17.83;11.57;;;;;;;;;;5052201;28;20059;-65
2021/12/03 04:46:05;;;;;;;20.40;11.48;;;;;;;;;;5051456;28;20041;-65
2021/12/03 04:48:31;;;;;;;18.40;11.13;;;;;;;;;;5034182;28;20044;-65
2021/12/03 04:50:57;;;;;;;19.63;12.05;;;;;;;;;;5034035;28;20172;-65
2021/12/03 04:53:23;;;;;;;16.88;11.40;;;;;;;;;;5051250;28;20053;-65
2021/12/03 04:55:50;;;;;;;17.95;11.50;;;;;;;;;;5051640;28;20037;-65
2021/12/03 04:58:16;;;;;;;13.60;11.55;;;;;;;;;;5051790;28;20041;-65
2021/12/03 05:00:45;;;;;;;17.15;11.55;;;;;;;;;;5051298;28;20047;-65
2021/12/03 05:03:11;;;;;;;18.42;11.85;;;;;;;;;;5051506;28;20037;-65
2021/12/03 05:05:38;;;;;;;15.82;11.77;;;;;;;;;;5033593;28;20657;-65
2021/12/03 05:08:07;;;;;;;16.77;11.88;;;;;;;;;;5033048;28;20053;-65
2021/12/03 05:10:34;;;;;;;19.02;11.77;;;;;;;;;;5051764;28;20049;-65
2021/12/03 05:13:02;;;;;;;18.90;11.82;;;;;;;;;;5051675;28;20041;-65
2021/12/03 05:15:28;;;;;;;15.88;10.77;;;;;;;;;;5050557;28;20037;-65
2021/12/03 05:17:54;;;;;;;22.75;11.52;;;;;;;;;;5033519;28;20427;-65
2021/12/03 05:20:20;;;;;;;17.10;12.25;;;;;;;;;;5051576;28;20033;-65
2021/12/03 05:22:46;;;;;;;20.38;12.15;;;;;;;;;;5050342;28;20088;-65
2021/12/03 05:25:13;;;;;;;23.00;12.07;;;;;;;;;;5051517;28;20518;-65
2021/12/03 05:27:39;;;;;;;16.45;11.38;;;;;;;;;;5051505;28;20037;-65
2021/12/03 05:30:06;;;;;;;16.50;11.27;;;;;;;;;;5032519;28;20154;-65
2021/12/03 05:32:33;;;;;;;16.02;10.45;;;;;;;;;;5051497;28;20044;-65
2021/12/03 05:34:59;;;;;;;22.38;13.23;;;;;;;;;;5033483;28;20523;-65
2021/12/03 05:37:25;;;;;;;13.98;10.65;;;;;;;;;;5050646;28;20076;-65
2021/12/03 05:39:51;;;;;;;20.77;11.95;;;;;;;;;;5051286;28;20080;-65
2021/12/03 05:42:17;;;;;;;14.70;8.88;;;;;;;;;;5032993;28;20051;-65
2021/12/03 05:44:43;;;;;;;13.65;10.27;;;;;;;;;;5033078;28;20071;-65
2021/12/03 05:47:09;;;;;;;17.65;11.02;;;;;;;;;;5050592;28;20037;-65
2021/12/03 05:49:35;;;;;;;20.75;11.82;;;;;;;;;;5033463;28;20082;-65
2021/12/03 05:52:01;;;;;;;13.20;10.93;;;;;;;;;;5037341;28;20037;-65
2021/12/03 05:54:28;;;;;;;20.02;11.13;;;;;;;;;;5054479;28;20037;-65
2021/12/03 05:56:55;;;;;;;15.60;9.95;;;;;;;;;;5054819;28;20171;-65
2021/12/03 05:59:21;;;;;;;13.98;9.82;;;;;;;;;;5055329;28;20503;-65
2021/12/03 06:01:47;;;;;;;18.90;10.65;;;;;;;;;;5054252;28;20679;-65
2021/12/03 06:04:13;;;;;;;16.67;11.15;;;;;;;;;;5037047;28;20037;-65
2021/12/03 06:06:39;;;;;;;16.05;10.82;;;;;;;;;;5054945;28;20045;-65
2021/12/03 06:09:05;;;;;;;19.30;10.98;;;;;;;;;;5054343;28;20041;-65
2021/12/03 06:11:32;;;;;;;16.80;10.15;;;;;;;;;;5036967;28;20123;-65
2021/12/03 06:13:58;;;;;;;15.68;10.32;;;;;;;;;;5054852;28;20037;-65
2021/12/03 06:16:24;;;;;;;14.95;9.68;;;;;;;;;;5054285;28;20048;-65
2021/12/03 06:18:50;;;;;;;16.42;9.70;;;;;;;;;;5054615;28;20037;-65
2021/12/03 06:21:16;;;;;;;16.30;10.50;;;;;;;;;;5036335;28;20048;-65
2021/12/03 06:23:42;;;;;;;13.27;9.82;;;;;;;;;;5035920;28;20203;-65
2021/12/03 06:26:09;;;;;;;18.35;9.45;;;;;;;;;;5054648;28;20073;-65
2021/12/03 06:28:37;;;;;;;15.65;9.20;;;;;;;;;;5036054;28;20099;-65
2021/12/03 06:31:03;;;;;;;18.65;9.02;;;;;;;;;;5019198;28;20053;-65
2021/12/03 06:33:29;;;;;;;20.30;9.27;;;;;;;;;;5053986;28;20040;-65
2021/12/03 06:35:55;;;;;;;11.68;7.32;;;;;;;;;;5054590;28;20426;-65
2021/12/03 06:38:21;;;;;;;15.75;9.32;;;;;;;;;;5035807;28;20056;-65
2021/12/03 06:40:48;;;;;;;16.27;8.60;;;;;;;;;;5054302;28;20048;-65
2021/12/03 06:43:14;;;;;;;13.20;7.60;;;;;;;;;;5036419;28;20063;-65
2021/12/03 06:45:40;;;;;;;15.63;8.27;;;;;;;;;;5053655;28;20036;-65
2021/12/03 06:48:06;;;;;;;13.98;8.32;;;;;;;;;;5054405;28;20467;-65
2021/12/03 06:50:32;;;;;;;14.52;8.80;;;;;;;;;;5053885;28;20037;-65
2021/12/03 06:53:02;;;;;;;15.68;8.65;;;;;;;;;;5053070;28;20131;-65
2021/12/03 06:55:28;;;;;;;17.95;8.23;;;;;;;;;;5053945;28;20079;-65
2021/12/03 06:57:55;;;;;;;12.88;8.68;;;;;;;;;;5053977;28;20053;-65
2021/12/03 07:00:22;;;;;;;14.52;9.20;;;;;;;;;;5053158;28;20048;-65
2021/12/03 07:02:49;;;;;;;17.42;8.90;;;;;;;;;;5053184;28;20049;-65
2021/12/03 07:05:15;;;;;;;18.42;10.23;;;;;;;;;;5053803;28;20602;-65
2021/12/03 07:07:41;;;;;;;16.50;10.20;;;;;;;;;;5035264;28;20049;-65
2021/12/03 07:10:08;;;;;;;16.08;8.63;;;;;;;;;;5053472;28;20047;-65
2021/12/03 07:12:34;;;;;;;15.15;8.82;;;;;;;;;;5053649;28;20123;-65
2021/12/03 07:15:01;;;;;;;18.70;9.63;;;;;;;;;;5034900;28;20052;-72
2021/12/03 07:17:30;;;;;;;18.63;9.18;;;;;;;;;;5054035;28;20048;-65
2021/12/03 07:19:57;;;;;;;15.55;8.75;;;;;;;;;;5035579;28;20086;-65
2021/12/03 07:22:23;;;;;;;17.40;9.57;;;;;;;;;;5052654;28;20069;-65
2021/12/03 07:24:49;;;;;;;15.45;9.38;;;;;;;;;;5053203;28;20081;-65
2021/12/03 07:27:15;;;;;;;14.73;8.63;;;;;;;;;;5053004;28;20066;-66
2021/12/03 07:29:47;;;;;;;15.25;9.48;;;;;;;;;;5034660;28;20072;-64
2021/12/03 07:32:13;;;;;;;18.70;9.10;;;;;;;;;;5051831;28;20435;-65
2021/12/03 07:34:39;;;;;;;17.33;9.85;;;;;;;;;;5052982;28;20052;-65
2021/12/03 07:37:05;;;;;;;19.75;10.13;;;;;;;;;;5052103;28;20043;-65
2021/12/03 07:39:32;;;;;;;21.10;9.75;;;;;;;;;;5035218;28;20041;-65
2021/12/03 07:41:58;;;;;;;22.13;9.15;;;;;;;;;;5034217;28;20045;-66
2021/12/03 07:44:24;;;;;;;17.50;9.82;;;;;;;;;;5051698;28;20041;-65
2021/12/03 07:46:50;;;;;;;20.05;10.32;;;;;;;;;;5052593;28;20040;-65
2021/12/03 07:49:16;;;;;;;17.58;10.85;;;;;;;;;;5052340;28;20041;-65
2021/12/03 07:51:42;;;;;;;22.02;10.35;;;;;;;;;;5052087;28;20044;-65
2021/12/03 07:54:08;;;;;;;18.95;10.57;;;;;;;;;;5052693;28;20545;-65
2021/12/03 07:56:35;;;;;;;21.50;9.63;;;;;;;;;;5052567;28;20080;-64
2021/12/03 07:59:01;;;;;;;16.48;9.52;;;;;;;;;;5051532;28;20075;-65
2021/12/03 08:01:27;;;;;;;21.10;9.77;;;;;;;;;;5052324;28;20065;-66
2021/12/03 08:03:53;;;;;;;16.33;9.68;;;;;;;;;;5017567;28;20136;-66
2021/12/03 08:06:19;;;;;;;18.85;9.95;;;;;;;;;;5033795;28;20376;-67
2021/12/03 08:08:45;;;;;;;23.95;10.88;;;;;;;;;;5034237;28;20491;-66
2021/12/03 08:11:11;;;;;;;20.27;10.75;;;;;;;;;;5052030;28;20033;-66
2021/12/03 08:13:37;;;;;;;20.50;10.90;;;;;;;;;;5032505;28;20112;-66
2021/12/03 08:16:04;;;;;;;19.55;10.85;;;;;;;;;;5051910;28;20037;-67
2021/12/03 08:18:30;;;;;;;25.58;11.90;;;;;;;;;;5034226;28;20499;-64
2021/12/03 08:20:56;;;;;;;25.50;12.50;;;;;;;;;;5002401;28;20049;-65
2021/12/03 08:23:23;;;;;;;27.00;11.90;;;;;;;;;;5048260;28;20083;-65
2021/12/03 08:25:49;;;;;;;23.05;13.10;;;;;;;;;;5051907;28;20045;-65
2021/12/03 08:28:15;;;;;;;28.70;15.00;;;;;;;;;;5051139;28;20045;-66
2021/12/03 08:30:41;;;;;;;29.08;13.68;;;;;;;;;;5051066;28;20033;-66
2021/12/03 08:33:07;;;;;;;25.23;14.45;;;;;;;;;;5051268;28;20494;-66
2021/12/03 08:35:34;;;;;;;31.40;15.40;;;;;;;;;;5051086;28;20052;-65
2021/12/03 08:38:00;;;;;;;32.10;15.88;;;;;;;;;;5051403;28;20124;-65
2021/12/03 08:40:26;;;;;;;36.85;15.98;;;;;;;;;;5050876;28;20139;-66
2021/12/03 08:42:52;;;;;;;33.03;17.45;;;;;;;;;;5050972;28;20513;-65
2021/12/03 08:45:20;;;;;;;30.65;18.00;;;;;;;;;;5033213;28;20040;-65
2021/12/03 08:47:49;;;;;;;32.35;18.02;;;;;;;;;;5051568;28;20380;-65
2021/12/03 08:50:19;;;;;;;31.90;17.45;;;;;;;;;;5050458;28;20371;-65
2021/12/03 08:53:04;;;;;;;34.45;17.92;;;;;;;;;;5032910;28;20049;-66
2021/12/03 08:55:31;;;;;;;34.03;19.40;;;;;;;;;;5051042;28;20503;-65
2021/12/03 08:57:57;;;;;;;37.60;19.75;;;;;;;;;;5031970;28;20145;-65
2021/12/03 09:00:23;;;;;;;45.65;20.88;;;;;;;;;;5050262;28;20040;-65
2021/12/03 09:02:49;;;;;;;39.03;20.58;;;;;;;;;;5050542;28;20045;-65
2021/12/03 09:05:15;;;;;;;40.78;19.17;;;;;;;;;;5050327;28;20040;-64
2021/12/03 09:07:42;;;;;;;34.85;19.88;;;;;;;;;;5050907;28;20041;-65
2021/12/03 09:10:13;;;;;;;39.42;20.95;;;;;;;;;;5049208;28;20411;-65
2021/12/03 09:12:40;;;;;;;35.13;17.60;;;;;;;;;;5047867;28;20672;-65
2021/12/03 09:15:10;;;;;;;40.97;20.60;;;;;;;;;;5041439;28;20044;-64
2021/12/03 09:22:58;;;;;;;44.10;21.15;;;;;;;;;;5050165;28;20057;-65
2021/12/03 09:25:44;;;;;;;45.03;21.25;;;;;;;;;;5049053;28;20368;-65
2021/12/03 09:28:12;;;;;;;44.75;21.58;;;;;;;;;;5042559;28;20099;-64
2021/12/03 09:30:41;;;;;;;41.28;20.63;;;;;;;;;;5048394;28;20040;-64
2021/12/03 09:33:09;;;;;;;41.13;19.83;;;;;;;;;;5049303;28;20041;-67
2021/12/03 09:35:40;;;;;;;37.30;20.35;;;;;;;;;;5046976;28;20052;-67
2021/12/03 09:38:06;;;;;;;39.95;19.42;;;;;;;;;;5031122;28;20054;-67
2021/12/03 09:40:35;;;;;;;37.55;18.58;;;;;;;;;;5044873;28;20041;-66
2021/12/03 09:43:01;;;;;;;39.17;18.48;;;;;;;;;;5048274;28;20072;-64
2021/12/03 09:45:29;;;;;;;38.35;17.83;;;;;;;;;;5049436;28;20041;-65
2021/12/03 09:47:55;;;;;;;34.45;18.33;;;;;;;;;;5046806;28;20045;-64
2021/12/03 09:50:22;;;;;;;39.13;17.73;;;;;;;;;;5048996;28;20037;-65
2021/12/03 09:53:11;;;;;;;41.70;17.95;;;;;;;;;;5048847;28;20029;-64
2021/12/03 09:55:37;;;;;;;39.25;17.65;;;;;;;;;;5050216;28;20048;-64
2021/12/03 10:14:15;;;;;;;27.25;14.85;;;;;;;;;;5048902;28;20040;-66
2021/12/03 10:17:17;;;;;;;;;;;;;;;;;;5042551;28;20475;-66
2021/12/03 10:19:49;;;;;;;33.08;13.45;;;;;;;;;;5048260;28;19917;-66
2021/12/03 10:22:35;;;;;;;28.02;12.70;;;;;;;;;;5036996;28;20057;-65
2021/12/03 10:25:21;;;;;;;26.60;10.75;;;;;;;;;;5038681;28;20047;-66
2021/12/03 10:36:47;;;;;;;26.90;10.27;;;;;;;;;;5031764;28;20478;-65
2021/12/03 10:39:38;;;;;;;21.13;9.80;;;;;;;;;;5039388;28;20049;-66
2021/12/03 10:41:41;;;;;;;22.10;8.68;;;;;;;;;;5037683;28;20048;-65
2021/12/03 11:03:17;;;;;;;20.50;7.75;;;;;;;;;;5047220;28;20360;-66
2021/12/03 11:20:10;;;;;;;20.25;7.10;;;;;;;;;;5051875;28;20048;-66
2021/12/03 11:39:08;;;;;;;15.77;5.88;;;;;;;;;;5051277;28;20052;-67
2021/12/03 11:45:10;;;;;;;18.88;5.32;;;;;;;;;;5050751;28;20044;-66
2021/12/03 12:26:56;;;;;;;18.90;5.70;;;;;;;;;;5050513;28;20067;-66
2021/12/03 13:04:15;;;;;;;10.00;5.05;;;;;;;;;;5050017;28;20058;-66
2021/12/03 13:30:02;;;;;;;15.00;5.72;;;;;;;;;;5031844;28;20098;-67
2021/12/03 13:41:51;;;;;;;19.77;5.57;;;;;;;;;;5040455;28;20068;-67
2021/12/03 13:56:40;;;;;;;19.38;6.22;;;;;;;;;;5038418;28;20044;-67
2021/12/03 14:07:37;;;;;;;19.30;5.65;;;;;;;;;;5049838;28;20049;-65
2021/12/03 14:19:18;;;;;;;12.65;5.35;;;;;;;;;;5050844;28;20045;-65
2021/12/03 14:22:39;;;;;;;13.18;5.38;;;;;;;;;;5052182;28;20052;-66
2021/12/03 14:56:18;;;;;;;11.57;5.35;;;;;;;;;;5050807;28;20065;-65
2021/12/03 14:58:51;;;;;;;10.75;6.72;;;;;;;;;;5021499;28;20077;-66
2021/12/03 15:01:33;;;;;;;16.73;6.68;;;;;;;;;;5033143;28;20415;-66
2021/12/03 15:04:23;;;;;;;;;;;;;;;;;;5033929;28;20088;-66
2021/12/03 15:10:05;;;;;;;8.98;5.80;;;;;;;;;;4952692;29;20054;-65
2021/12/03 15:18:37;;;;;;;9.82;5.93;;;;;;;;;;5033055;28;20440;-65
2021/12/03 15:23:37;;;;;;;9.48;6.15;;;;;;;;;;5031915;28;20199;-66
2021/12/03 16:08:50;;;;;;;11.85;7.57;;;;;;;;;;5052244;28;20041;-66
2021/12/03 16:11:35;;;;;;;11.57;8.20;;;;;;;;;;5052771;28;20049;-66
2021/12/03 16:16:52;;;;;;;11.77;7.97;;;;;;;;;;5052815;28;20041;-66
2021/12/03 16:27:23;;;;;;;12.10;8.73;;;;;;;;;;5052546;28;20045;-66
2021/12/03 16:51:44;;;;;;;12.63;8.98;;;;;;;;;;5051174;28;20133;-66
2021/12/03 16:54:12;;;;;;;17.42;10.45;;;;;;;;;;5051688;28;20044;-66
2021/12/03 16:56:47;;;;;;;14.45;9.77;;;;;;;;;;5052088;28;20041;-66
2021/12/03 16:59:14;;;;;;;14.82;9.45;;;;;;;;;;5051224;28;20044;-66
2021/12/03 17:29:15;;;;;;;19.95;14.13;;;;;;;;;;5050848;28;20060;-66
2021/12/03 17:45:39;;;;;;;24.67;15.90;;;;;;;;;;5051068;28;20140;-66
2021/12/03 17:53:33;;;;;;;26.35;17.45;;;;;;;;;;5055381;28;20174;-66
2021/12/03 17:58:28;;;;;;;26.17;17.63;;;;;;;;;;5054453;28;20562;-66
2021/12/03 18:01:09;;;;;;;29.05;17.98;;;;;;;;;;5037180;28;20165;-66
2021/12/03 18:49:57;;;;;;;31.75;19.65;;;;;;;;;;5053452;28;20187;-66
2021/12/03 18:55:14;;;;;;;32.70;19.25;;;;;;;;;;5053994;28;20052;-66
2021/12/03 18:57:44;;;;;;;33.67;19.98;;;;;;;;;;5052772;28;20095;-66
2021/12/03 19:00:12;;;;;;;39.55;20.52;;;;;;;;;;5054295;28;20154;-66
2021/12/03 19:02:44;;;;;;;36.75;21.25;;;;;;;;;;5053690;28;20124;-66
2021/12/03 19:10:09;;;;;;;37.08;20.90;;;;;;;;;;5054065;28;20056;-66
2021/12/03 19:12:39;;;;;;;36.42;20.77;;;;;;;;;;5035082;28;20049;-66
2021/12/03 19:15:06;;;;;;;33.13;20.40;;;;;;;;;;5035852;28;20053;-66
2021/12/03 19:17:37;;;;;;;36.65;21.48;;;;;;;;;;5053947;28;20093;-66
2021/12/03 19:20:04;;;;;;;38.08;20.83;;;;;;;;;;5053084;28;20499;-66
2021/12/03 19:22:30;;;;;;;39.00;22.17;;;;;;;;;;5052995;28;20198;-66
2021/12/03 19:24:58;;;;;;;35.67;22.00;;;;;;;;;;5053416;28;20052;-66
2021/12/03 19:27:25;;;;;;;37.33;20.55;;;;;;;;;;5053054;28;20041;-66
2021/12/03 19:29:54;;;;;;;39.00;21.90;;;;;;;;;;5053636;28;20099;-66
2021/12/03 19:32:20;;;;;;;40.38;22.25;;;;;;;;;;5035421;28;20049;-66
2021/12/03 19:34:46;;;;;;;43.17;22.25;;;;;;;;;;5052648;28;20120;-66
2021/12/03 19:37:12;;;;;;;37.60;21.17;;;;;;;;;;5035273;28;20048;-66
2021/12/03 19:39:39;;;;;;;38.97;22.10;;;;;;;;;;5053503;28;20679;-66
2021/12/03 19:44:52;;;;;;;40.83;22.80;;;;;;;;;;5053301;28;20084;-66
2021/12/03 19:47:27;;;;;;;40.95;22.75;;;;;;;;;;5053358;28;20049;-66
2021/12/03 19:50:03;;;;;;;37.20;20.20;;;;;;;;;;5034462;28;20072;-66
2021/12/03 19:52:38;;;;;;;37.15;21.25;;;;;;;;;;5053210;28;20094;-66
2021/12/03 19:55:04;;;;;;;35.42;20.05;;;;;;;;;;5053263;28;20037;-66
2021/12/03 19:57:30;;;;;;;36.05;20.33;;;;;;;;;;5052633;28;20033;-66
2021/12/03 19:59:56;;;;;;;35.80;19.10;;;;;;;;;;5053014;28;20032;-66
2021/12/03 20:02:23;;;;;;;37.38;20.63;;;;;;;;;;5034995;28;20049;-66
2021/12/03 20:04:49;;;;;;;38.83;21.75;;;;;;;;;;5052422;28;20091;-66
2021/12/03 20:07:15;;;;;;;36.92;20.23;;;;;;;;;;5052787;28;20068;-66
2021/12/03 20:09:47;;;;;;;36.70;19.95;;;;;;;;;;5052700;28;20045;-66
2021/12/03 20:12:15;;;;;;;38.53;21.20;;;;;;;;;;5051993;28;20037;-66
2021/12/03 20:14:44;;;;;;;39.20;20.80;;;;;;;;;;5052763;28;20056;-66
2021/12/03 20:17:23;;;;;;;34.58;18.33;;;;;;;;;;5052759;28;20048;-66
2021/12/03 20:19:56;;;;;;;40.05;20.73;;;;;;;;;;5051990;28;20460;-66
2021/12/03 20:27:53;;;;;;;43.97;21.90;;;;;;;;;;5031905;28;20057;-66
2021/12/03 20:30:44;;;;;;;43.25;23.05;;;;;;;;;;5032606;28;20041;-66
2021/12/03 20:35:57;;;;;;;40.88;21.45;;;;;;;;;;5032364;28;20033;-66
2021/12/03 20:38:27;;;;;;;40.05;21.48;;;;;;;;;;5031963;28;20052;-66
2021/12/03 20:40:55;;;;;;;50.08;22.48;;;;;;;;;;5014147;28;20069;-66
2021/12/03 20:54:20;;;;;;;36.85;19.98;;;;;;;;;;5031925;28;20124;-66
2021/12/03 21:10:55;;;;;;;34.63;19.13;;;;;;;;;;5013090;28;20047;-66
2021/12/03 21:13:30;;;;;;;35.03;18.33;;;;;;;;;;5031865;28;20726;-66
2021/12/03 21:16:06;;;;;;;32.97;18.25;;;;;;;;;;5031812;28;20037;-66
2021/12/03 21:21:11;;;;;;;30.08;18.38;;;;;;;;;;5031238;28;20052;-66
2021/12/03 21:23:45;;;;;;;30.63;15.38;;;;;;;;;;5031249;28;20053;-66
2021/12/03 21:26:16;;;;;;;30.90;18.95;;;;;;;;;;5039157;28;20076;-66
2021/12/03 21:28:55;;;;;;;29.52;17.50;;;;;;;;;;5033497;28;20165;-66
2021/12/03 21:31:46;;;;;;;30.90;16.63;;;;;;;;;;5051482;28;20479;-66
2021/12/03 21:40:08;;;;;;;31.45;18.17;;;;;;;;;;5051004;28;20045;-66
2021/12/03 21:42:28;;;;;;;33.55;19.23;;;;;;;;;;5050343;28;20464;-66
2021/12/03 21:44:54;;;;;;;31.17;18.02;;;;;;;;;;5051415;28;20098;-66
2021/12/03 21:47:20;;;;;;;31.42;18.42;;;;;;;;;;5050845;28;20037;-66
2021/12/03 21:49:46;;;;;;;32.03;18.52;;;;;;;;;;5051320;28;20052;-66
2021/12/03 21:52:12;;;;;;;33.83;19.10;;;;;;;;;;5051434;28;20151;-66
2021/12/03 21:54:38;;;;;;;28.73;17.65;;;;;;;;;;5032649;28;20678;-66
2021/12/03 21:57:05;;;;;;;34.15;18.65;;;;;;;;;;5050970;28;20033;-66
2021/12/03 21:59:32;;;;;;;32.28;18.02;;;;;;;;;;5051257;28;20045;-66
2021/12/03 22:01:58;;;;;;;33.28;18.90;;;;;;;;;;5050381;28;20053;-66
2021/12/03 22:04:24;;;;;;;36.35;18.52;;;;;;;;;;5033335;28;20083;-66
2021/12/03 22:06:50;;;;;;;32.00;17.90;;;;;;;;;;5051058;28;20047;-66
2021/12/03 22:09:19;;;;;;;32.65;17.95;;;;;;;;;;5050398;28;20048;-66
2021/12/03 22:11:46;;;;;;;33.65;18.13;;;;;;;;;;5050702;28;20053;-66
2021/12/03 22:14:14;;;;;;;33.53;17.65;;;;;;;;;;5051201;28;20092;-66
2021/12/03 22:16:40;;;;;;;33.28;18.05;;;;;;;;;;5050534;28;20044;-66
2021/12/03 22:19:06;;;;;;;32.05;18.45;;;;;;;;;;5051030;28;20395;-66
2021/12/03 22:21:32;;;;;;;36.97;18.45;;;;;;;;;;5051074;28;20045;-66
2021/12/03 22:23:58;;;;;;;32.20;17.67;;;;;;;;;;5049856;28;20053;-66
2021/12/03 22:26:25;;;;;;;35.88;19.85;;;;;;;;;;5050895;28;20124;-66
2021/12/03 22:28:52;;;;;;;33.08;18.48;;;;;;;;;;5033054;28;20111;-66
2021/12/03 22:31:18;;;;;;;35.35;18.60;;;;;;;;;;5032324;28;20041;-66
2021/12/03 22:33:44;;;;;;;34.78;18.92;;;;;;;;;;5052681;28;20044;-66